Time;durP1;ratioP1;P1;durP2;ratioP2;P2;SDS_P1;SDS_P2;PMS_P1;PMS_P2;Temp;Humidity;BMP_temperature;BMP_pressure;BME280_temperature;BME280_humidity;BME280_pressure;Samples;Min_cycle;Max_cycle;Signal;HPM_P1;HPM_P2
2022/06/03 00:01:59;;;;;;;7.22;4.68;;;14.10;29.70;;;;;;4986572;28;20475;-78
2022/06/03 00:04:37;;;;;;;7.15;4.10;;;13.80;30.70;;;;;;5033581;28;20432;-78
2022/06/03 00:07:02;;;;;;;5.57;4.40;;;13.90;31.20;;;;;;5023755;28;20418;-77
2022/06/03 00:10:06;;;;;;;5.43;4.15;;;14.00;31.00;;;;;;5045299;28;20421;-78
2022/06/03 00:12:53;;;;;;;7.97;4.60;;;13.90;31.30;;;;;;5025383;28;20409;-77
2022/06/03 00:15:47;;;;;;;7.65;4.63;;;14.00;31.20;;;;;;5036014;28;20419;-78
2022/06/03 00:18:31;;;;;;;5.50;4.20;;;13.90;31.40;;;;;;5023495;28;20405;-77
2022/06/03 00:21:00;;;;;;;8.02;4.68;;;13.70;32.30;;;;;;5007255;28;20393;-78
2022/06/03 00:24:07;;;;;;;6.43;5.15;;;13.70;32.80;;;;;;5026641;28;20387;-77
2022/06/03 00:26:32;;;;;;;7.27;4.80;;;13.50;33.80;;;;;;5016135;28;20490;-78
2022/06/03 00:29:35;;;;;;;9.57;5.40;;;13.60;33.40;;;;;;5040199;28;20833;-77
2022/06/03 00:32:10;;;;;;;8.30;4.13;;;13.60;34.20;;;;;;5037224;28;20409;-78
2022/06/03 00:34:48;;;;;;;4.50;4.10;;;13.60;33.60;;;;;;5032845;28;20412;-78
2022/06/03 00:37:16;;;;;;;6.97;4.53;;;13.40;34.60;;;;;;5042446;28;20487;-77
2022/06/03 00:40:06;;;;;;;5.55;4.78;;;13.40;35.20;;;;;;5034957;28;20389;-78
2022/06/03 00:43:08;;;;;;;6.55;4.30;;;13.40;34.80;;;;;;5016668;28;20385;-77
2022/06/03 00:45:57;;;;;;;7.05;4.70;;;13.20;35.70;;;;;;5006170;28;20431;-79
2022/06/03 00:48:42;;;;;;;6.72;4.63;;;13.10;35.90;;;;;;4994335;28;20459;-80
2022/06/03 00:51:37;;;;;;;7.72;4.65;;;13.00;36.70;;;;;;5009561;28;20391;-77
2022/06/03 00:54:21;;;;;;;4.50;4.10;;;12.90;37.10;;;;;;5037654;28;20439;-79
2022/06/03 00:57:12;;;;;;;8.18;4.70;;;12.70;38.60;;;;;;5043506;28;20434;-77
2022/06/03 01:00:02;;;;;;;4.80;4.20;;;12.80;38.70;;;;;;5020611;28;20403;-77
2022/06/03 01:02:42;;;;;;;6.70;5.00;;;12.50;39.40;;;;;;5026839;28;20396;-78
2022/06/03 01:05:34;;;;;;;5.00;4.40;;;12.40;39.70;;;;;;5030679;28;20418;-79
2022/06/03 01:08:24;;;;;;;5.13;4.15;;;12.60;38.80;;;;;;5048202;28;20390;-78
2022/06/03 01:11:08;;;;;;;4.50;4.10;;;12.60;38.60;;;;;;5041678;28;20973;-78
2022/06/03 01:14:03;;;;;;;5.40;4.32;;;12.60;38.10;;;;;;5045578;28;20417;-77
2022/06/03 01:16:50;;;;;;;5.10;4.22;;;12.50;38.60;;;;;;5035120;28;20426;-77
2022/06/03 01:19:16;;;;;;;5.95;4.28;;;12.50;38.90;;;;;;5034099;28;20395;-77
2022/06/03 01:22:08;;;;;;;6.33;4.30;;;12.50;39.30;;;;;;5018801;28;20888;-78
2022/06/03 01:24:55;;;;;;;5.22;3.80;;;12.60;38.90;;;;;;5044022;28;20383;-78
2022/06/03 01:27:55;;;;;;;6.07;4.10;;;12.70;38.80;;;;;;5043747;28;20391;-79
2022/06/03 01:30:39;;;;;;;6.00;4.00;;;12.70;38.40;;;;;;5027563;28;20393;-77
2022/06/03 01:33:16;;;;;;;5.40;4.10;;;12.80;37.80;;;;;;5031580;28;20493;-77
2022/06/03 01:35:46;;;;;;;11.10;8.10;;;12.80;38.30;;;;;;5030898;28;20412;-80
2022/06/03 01:39:01;;;;;;;7.00;5.40;;;12.70;38.90;;;;;;5037332;28;20532;-80
2022/06/03 01:42:04;;;;;;;6.43;4.50;;;12.50;38.80;;;;;;4981184;28;20389;-81
2022/06/03 01:44:51;;;;;;;5.72;4.20;;;12.40;39.70;;;;;;5028042;28;20430;-80
2022/06/03 01:47:39;;;;;;;8.52;4.65;;;12.30;41.60;;;;;;5042737;28;20410;-81
2022/06/03 01:50:45;;;;;;;5.05;4.22;;;12.50;40.90;;;;;;5040024;28;20379;-78
2022/06/03 01:53:39;;;;;;;4.70;4.20;;;12.70;39.10;;;;;;5039515;28;20446;-78
2022/06/03 01:56:32;;;;;;;4.53;3.97;;;12.70;39.30;;;;;;5035285;28;20417;-80
2022/06/03 01:59:09;;;;;;;6.03;4.40;;;12.50;39.60;;;;;;5024947;28;20385;-78
2022/06/03 02:01:41;;;;;;;6.53;4.80;;;12.40;40.30;;;;;;5016888;28;20420;-79
2022/06/03 02:04:26;;;;;;;5.88;4.82;;;12.20;41.20;;;;;;5024900;28;20381;-78
2022/06/03 02:07:01;;;;;;;6.97;4.93;;;12.00;42.20;;;;;;5021290;28;20384;-79
2022/06/03 02:09:35;;;;;;;6.27;4.60;;;11.90;42.70;;;;;;5034470;28;20409;-79
2022/06/03 02:12:24;;;;;;;5.97;3.97;;;11.80;43.60;;;;;;5043311;28;20425;-78
2022/06/03 02:15:27;;;;;;;7.78;4.57;;;11.70;44.80;;;;;;5036771;28;20411;-77
2022/06/03 02:18:02;;;;;;;7.28;4.60;;;11.70;45.40;;;;;;5023485;28;20411;-79
2022/06/03 02:21:10;;;;;;;5.20;4.70;;;12.00;44.30;;;;;;5044189;28;20884;-77
2022/06/03 02:23:58;;;;;;;6.70;4.70;;;11.90;44.20;;;;;;5043888;28;20419;-79
2022/06/03 02:26:42;;;;;;;5.57;4.90;;;11.70;45.60;;;;;;5047621;28;20367;-80
2022/06/03 02:33:02;;;;;;;7.90;5.45;;;11.40;47.80;;;;;;5017268;28;20413;-79
2022/06/03 02:35:46;;;;;;;6.72;5.50;;;11.30;49.30;;;;;;5040382;28;20406;-78
2022/06/03 02:39:10;;;;;;;7.75;5.32;;;11.30;50.20;;;;;;5016023;28;20769;-79
2022/06/03 02:41:58;;;;;;;14.93;6.73;;;11.40;50.50;;;;;;4976912;28;20388;-79
2022/06/03 02:45:01;;;;;;;15.30;6.50;;;11.70;49.70;;;;;;4981790;28;20396;-78
2022/06/03 02:48:05;;;;;;;10.00;6.03;;;11.40;50.00;;;;;;4956384;28;20418;-79
2022/06/03 02:50:55;;;;;;;10.38;6.82;;;11.20;52.60;;;;;;5040394;28;20421;-80
2022/06/03 02:54:01;;;;;;;10.88;6.00;;;11.00;53.90;;;;;;5026324;28;20394;-80
2022/06/03 02:56:47;;;;;;;13.25;8.20;;;10.90;55.60;;;;;;5019067;28;20445;-79
2022/06/03 02:59:26;;;;;;;9.77;6.82;;;10.80;57.30;;;;;;5009959;28;20445;-80
2022/06/03 03:02:19;;;;;;;8.85;6.43;;;10.70;59.00;;;;;;5037675;28;20405;-79
2022/06/03 03:05:14;;;;;;;7.40;5.90;;;10.70;60.20;;;;;;5039873;28;20435;-79
2022/06/03 03:07:47;;;;;;;7.32;5.50;;;10.70;62.10;;;;;;5017418;28;20412;-79
2022/06/03 03:10:45;;;;;;;7.65;5.63;;;10.70;61.20;;;;;;5029373;28;20381;-81
2022/06/03 03:13:43;;;;;;;8.13;5.90;;;10.90;61.00;;;;;;4969739;28;20878;-79
2022/06/03 03:16:34;;;;;;;9.00;6.10;;;11.10;59.00;;;;;;5018232;28;20462;-79
2022/06/03 03:19:31;;;;;;;7.05;6.00;;;11.10;58.50;;;;;;5040769;28;20407;-80
2022/06/03 03:22:36;;;;;;;12.18;6.20;;;11.00;59.40;;;;;;5020022;28;20388;-78
2022/06/03 03:25:08;;;;;;;10.48;6.55;;;11.10;58.90;;;;;;5011850;28;20877;-77
2022/06/03 03:27:57;;;;;;;9.23;6.57;;;11.10;58.70;;;;;;5019136;28;20885;-77
2022/06/03 03:30:41;;;;;;;9.48;6.35;;;11.40;56.10;;;;;;5031204;28;20409;-78
2022/06/03 03:33:09;;;;;;;7.32;6.57;;;11.10;58.30;;;;;;5031533;28;20395;-77
2022/06/03 03:36:08;;;;;;;8.27;6.50;;;10.90;59.20;;;;;;5035523;28;20458;-77
2022/06/03 03:39:00;;;;;;;9.98;7.50;;;10.80;60.70;;;;;;5028767;28;20456;-78
2022/06/03 03:41:59;;;;;;;13.15;8.07;;;10.60;62.30;;;;;;5026023;28;20447;-79
2022/06/03 03:44:55;;;;;;;9.38;6.68;;;10.60;63.90;;;;;;5037597;28;20470;-77
2022/06/03 03:47:46;;;;;;;8.38;5.90;;;10.60;64.20;;;;;;5038963;28;20406;-78
2022/06/03 03:50:39;;;;;;;8.57;6.43;;;10.60;66.30;;;;;;5037679;28;20872;-77
2022/06/03 03:53:43;;;;;;;8.82;6.35;;;10.60;65.50;;;;;;5041088;28;20411;-77
2022/06/03 03:56:23;;;;;;;9.00;6.30;;;10.70;64.60;;;;;;4991592;28;20447;-77
2022/06/03 03:59:16;;;;;;;12.23;7.30;;;10.90;64.10;;;;;;5052714;28;20394;-77
2022/06/03 04:01:51;;;;;;;8.73;6.43;;;10.90;63.90;;;;;;5020504;28;20407;-79
2022/06/03 04:04:28;;;;;;;7.32;5.90;;;10.80;64.10;;;;;;5034579;28;20447;-80
2022/06/03 04:07:13;;;;;;;6.15;5.45;;;10.80;64.30;;;;;;5042098;28;20384;-79
2022/06/03 04:09:57;;;;;;;6.90;6.00;;;11.10;62.90;;;;;;5041701;28;21172;-78
2022/06/03 04:13:08;;;;;;;10.32;6.07;;;11.50;56.30;;;;;;5050774;28;20449;-77
2022/06/03 04:15:56;;;;;;;7.80;5.90;;;11.60;54.50;;;;;;5044732;28;20411;-77
2022/06/03 04:19:00;;;;;;;8.90;6.35;;;11.40;56.60;;;;;;5048598;28;20394;-75
2022/06/03 04:21:57;;;;;;;10.37;6.30;;;11.40;57.60;;;;;;5050430;28;20383;-76
2022/06/03 04:25:03;;;;;;;8.10;6.20;;;11.30;58.30;;;;;;5050864;28;20393;-76
2022/06/03 04:28:06;;;;;;;6.80;5.40;;;11.40;58.20;;;;;;5028748;28;20469;-78
2022/06/03 04:30:50;;;;;;;8.70;6.10;;;11.60;56.90;;;;;;5052944;28;20779;-78
2022/06/03 04:33:54;;;;;;;7.18;5.82;;;11.90;53.10;;;;;;5051430;28;20383;-77
2022/06/03 04:37:07;;;;;;;8.43;6.30;;;12.20;50.40;;;;;;5041843;28;20412;-75
2022/06/03 04:39:51;;;;;;;8.77;6.50;;;12.40;47.80;;;;;;5048226;28;20403;-78
2022/06/03 04:42:48;;;;;;;11.45;6.20;;;12.40;47.50;;;;;;5044343;28;20388;-81
2022/06/03 04:45:58;;;;;;;9.27;6.13;;;12.30;49.20;;;;;;5050854;28;20465;-77
2022/06/03 04:49:02;;;;;;;9.40;6.57;;;12.70;45.70;;;;;;5006923;28;20465;-80
2022/06/03 04:51:49;;;;;;;8.05;5.88;;;12.90;43.60;;;;;;5044347;28;20401;-77
2022/06/03 04:54:26;;;;;;;7.75;5.80;;;13.00;43.40;;;;;;5044906;28;20442;-80
2022/06/03 04:57:31;;;;;;;14.30;6.50;;;13.10;42.50;;;;;;5036038;28;20391;-79
2022/06/03 05:00:25;;;;;;;12.88;6.80;;;13.00;44.10;;;;;;5051567;28;20429;-75
2022/06/03 05:03:23;;;;;;;9.88;6.47;;;13.00;44.10;;;;;;5045727;28;20385;-80
2022/06/03 05:06:11;;;;;;;9.30;6.50;;;12.90;44.90;;;;;;5030835;28;20435;-78
2022/06/03 05:09:02;;;;;;;11.65;6.47;;;13.10;43.40;;;;;;5016041;28;20431;-78
2022/06/03 05:11:50;;;;;;;8.73;6.22;;;13.20;43.00;;;;;;4990807;28;20447;-77
2022/06/03 05:14:50;;;;;;;10.07;6.70;;;13.30;42.30;;;;;;5041384;28;20424;-77
2022/06/03 05:17:39;;;;;;;8.05;6.03;;;13.40;41.80;;;;;;5046877;28;20399;-77
2022/06/03 05:20:05;;;;;;;8.85;6.30;;;13.60;41.30;;;;;;5039919;28;20436;-78
2022/06/03 05:23:02;;;;;;;8.18;6.75;;;13.70;40.70;;;;;;5035240;28;20413;-78
2022/06/03 05:25:58;;;;;;;7.75;6.18;;;13.90;39.50;;;;;;5032550;28;20774;-78
2022/06/03 05:28:36;;;;;;;9.98;6.28;;;14.10;38.50;;;;;;5039897;28;20387;-75
2022/06/03 05:31:43;;;;;;;11.10;6.05;;;14.30;35.60;;;;;;5034915;28;20445;-75
2022/06/03 05:34:30;;;;;;;8.20;6.00;;;14.40;34.90;;;;;;5034863;28;20414;-77
2022/06/03 05:40:18;;;;;;;8.85;5.97;;;14.50;35.30;;;;;;5045248;28;20417;-76
2022/06/03 05:43:07;;;;;;;8.85;4.90;;;14.40;35.10;;;;;;5046329;28;20538;-75
2022/06/03 05:45:54;;;;;;;10.00;5.30;;;14.50;35.30;;;;;;5049264;28;20901;-75
2022/06/03 05:48:23;;;;;;;8.18;5.22;;;14.60;34.00;;;;;;5057813;28;20447;-76
2022/06/03 05:51:00;;;;;;;10.45;5.53;;;14.90;33.70;;;;;;5062756;28;20589;-75
2022/06/03 05:53:38;;;;;;;8.50;5.30;;;14.90;33.50;;;;;;5055013;28;20754;-76
2022/06/03 05:56:41;;;;;;;6.28;4.80;;;14.90;33.30;;;;;;5050421;28;20408;-75
2022/06/03 05:59:25;;;;;;;7.88;5.13;;;15.00;32.00;;;;;;5056876;28;20384;-74
2022/06/03 06:02:07;;;;;;;6.70;5.00;;;15.10;31.80;;;;;;5061660;28;20455;-75
2022/06/03 06:04:51;;;;;;;10.30;5.50;;;15.30;32.00;;;;;;5071496;28;20383;-75
2022/06/03 06:07:27;;;;;;;9.35;5.30;;;15.60;30.90;;;;;;5049101;28;20437;-74
2022/06/03 06:09:52;;;;;;;8.13;4.80;;;15.80;29.90;;;;;;5051310;28;20440;-74
2022/06/03 06:12:44;;;;;;;11.80;5.40;;;16.10;28.70;;;;;;5056619;28;20433;-75
2022/06/03 06:15:41;;;;;;;12.15;5.60;;;16.20;27.90;;;;;;5051385;28;20413;-74
2022/06/03 06:18:21;;;;;;;7.75;5.97;;;16.10;28.20;;;;;;5055479;28;20464;-73
2022/06/03 06:21:12;;;;;;;9.63;5.30;;;16.30;28.30;;;;;;5051021;28;20734;-74
2022/06/03 06:23:51;;;;;;;8.45;4.80;;;16.40;26.60;;;;;;5050838;28;20381;-74
2022/06/03 06:26:33;;;;;;;9.30;5.03;;;16.30;26.70;;;;;;5051514;28;20424;-74
2022/06/03 06:29:23;;;;;;;11.00;5.40;;;16.50;27.00;;;;;;5058945;28;20473;-75
2022/06/03 06:32:26;;;;;;;10.30;4.80;;;16.70;27.20;;;;;;5066719;28;20384;-74
2022/06/03 06:35:29;;;;;;;11.38;5.85;;;16.70;26.70;;;;;;5058087;28;20408;-73
2022/06/03 06:38:20;;;;;;;7.07;4.53;;;16.80;27.20;;;;;;5056130;28;20406;-72
2022/06/03 06:41:11;;;;;;;9.45;4.90;;;16.80;26.90;;;;;;5053804;28;20939;-74
2022/06/03 06:44:03;;;;;;;8.60;5.18;;;16.80;26.90;;;;;;5058054;28;20385;-74
2022/06/03 06:46:48;;;;;;;12.05;5.20;;;17.00;27.10;;;;;;5043265;28;20850;-74
2022/06/03 06:49:24;;;;;;;9.13;5.07;;;17.10;27.20;;;;;;5051777;28;20397;-74
2022/06/03 06:52:20;;;;;;;7.72;4.47;;;17.20;26.60;;;;;;5053501;28;20403;-74
2022/06/03 06:55:01;;;;;;;4.75;3.95;;;17.30;26.40;;;;;;5056983;28;20463;-75
2022/06/03 06:57:39;;;;;;;7.07;4.10;;;17.30;26.60;;;;;;5066079;28;20520;-74
2022/06/03 07:00:16;;;;;;;6.07;3.88;;;17.30;26.20;;;;;;5068670;28;20434;-73
2022/06/03 07:02:48;;;;;;;8.70;4.00;;;17.40;26.20;;;;;;5059063;28;20389;-75
2022/06/03 07:05:17;;;;;;;5.40;3.60;;;17.50;25.70;;;;;;5053948;28;20503;-75
2022/06/03 07:08:09;;;;;;;8.23;4.20;;;17.50;25.90;;;;;;5054405;28;20462;-77
2022/06/03 07:11:00;;;;;;;8.67;3.97;;;17.70;25.40;;;;;;5029829;28;20597;-75
2022/06/03 07:13:42;;;;;;;8.13;4.00;;;17.90;24.50;;;;;;5049598;28;20905;-74
2022/06/03 07:16:09;;;;;;;7.20;4.00;;;18.00;24.10;;;;;;5051753;28;20524;-75
2022/06/03 07:21:25;;;;;;;6.55;4.20;;;18.50;23.40;;;;;;5040640;28;20932;-74
2022/06/03 07:23:59;;;;;;;6.63;4.10;;;18.40;23.10;;;;;;5052453;28;20770;-74
2022/06/03 07:26:38;;;;;;;7.18;4.05;;;18.30;23.20;;;;;;5034361;28;20406;-74
2022/06/03 07:29:17;;;;;;;8.43;4.25;;;18.50;23.10;;;;;;5048570;28;20393;-74
2022/06/03 07:31:58;;;;;;;7.88;3.55;;;18.90;22.70;;;;;;5046776;28;20433;-74
2022/06/03 07:34:32;;;;;;;7.25;3.40;;;19.10;21.90;;;;;;5054285;28;20497;-76
2022/06/03 07:37:04;;;;;;;4.20;3.22;;;19.10;21.90;;;;;;5050872;28;20789;-74
2022/06/03 07:39:34;;;;;;;4.25;3.30;;;19.20;21.60;;;;;;5048781;28;20742;-75
2022/06/03 07:42:21;;;;;;;6.85;3.45;;;19.10;21.20;;;;;;5062756;28;20390;-76
2022/06/03 07:44:55;;;;;;;4.40;3.20;;;19.10;21.20;;;;;;5063460;28;20497;-76
2022/06/03 07:47:23;;;;;;;4.93;3.40;;;19.10;21.70;;;;;;5051405;28;20405;-75
2022/06/03 07:49:58;;;;;;;6.93;3.10;;;19.30;21.30;;;;;;5076528;28;20419;-76
2022/06/03 07:52:47;;;;;;;6.00;3.40;;;19.40;21.10;;;;;;5071197;28;20397;-74
2022/06/03 07:55:20;;;;;;;4.00;3.15;;;19.50;21.70;;;;;;5068966;28;20408;-74
2022/06/03 07:57:56;;;;;;;8.95;3.90;;;19.40;20.30;;;;;;5068963;28;20411;-73
2022/06/03 08:00:23;;;;;;;3.47;3.00;;;19.30;20.20;;;;;;5061344;28;20406;-74
2022/06/03 08:03:18;;;;;;;5.70;2.90;;;19.50;20.60;;;;;;5067951;28;20431;-75
2022/06/03 08:05:46;;;;;;;7.70;3.30;;;19.60;19.50;;;;;;5070976;28;20394;-75
2022/06/03 08:11:04;;;;;;;4.93;3.88;;;19.60;20.00;;;;;;5066661;28;20410;-77
2022/06/03 08:13:41;;;;;;;5.70;4.03;;;19.60;20.90;;;;;;5061449;28;20430;-75
2022/06/03 08:16:29;;;;;;;5.53;3.55;;;19.70;21.00;;;;;;5075913;28;20403;-76
2022/06/03 08:18:59;;;;;;;3.58;2.92;;;19.80;21.40;;;;;;5080846;28;20478;-76
2022/06/03 08:21:31;;;;;;;3.45;3.03;;;19.90;21.20;;;;;;5080329;28;20419;-75
2022/06/03 08:24:00;;;;;;;3.92;3.33;;;20.00;21.40;;;;;;5062566;28;20767;-74
2022/06/03 08:26:27;;;;;;;3.30;2.80;;;20.10;20.40;;;;;;5074987;28;20941;-77
2022/06/03 08:29:00;;;;;;;5.32;2.65;;;20.20;21.00;;;;;;5062169;28;20392;-75
2022/06/03 08:31:26;;;;;;;3.80;2.60;;;20.30;18.70;;;;;;5070896;28;20413;-75
2022/06/03 08:33:58;;;;;;;3.53;2.80;;;20.30;18.30;;;;;;5077586;28;20395;-75
2022/06/03 08:36:27;;;;;;;4.30;2.90;;;20.40;18.90;;;;;;5070687;28;20412;-76
2022/06/03 08:39:08;;;;;;;7.07;2.63;;;20.50;19.20;;;;;;5054825;28;20408;-76
2022/06/03 08:41:45;;;;;;;2.55;2.33;;;20.60;18.30;;;;;;5057310;28;20436;-74
2022/06/03 08:44:38;;;;;;;4.55;2.70;;;20.70;18.00;;;;;;5060923;28;20407;-74
2022/06/03 08:47:20;;;;;;;3.95;2.67;;;20.70;17.70;;;;;;5061505;28;20411;-75
2022/06/03 08:49:56;;;;;;;3.20;2.40;;;20.80;17.50;;;;;;5065469;28;20407;-78
2022/06/03 08:52:30;;;;;;;3.00;2.30;;;20.90;16.40;;;;;;5063307;28;20450;-77
2022/06/03 08:55:01;;;;;;;3.55;2.67;;;20.90;17.30;;;;;;5048291;28;20467;-75
2022/06/03 08:57:42;;;;;;;2.50;2.30;;;21.10;16.30;;;;;;5054744;28;20452;-75
2022/06/03 09:00:19;;;;;;;4.00;2.40;;;21.10;15.30;;;;;;5055936;28;20476;-76
2022/06/03 09:02:44;;;;;;;5.65;2.58;;;21.30;15.00;;;;;;5060247;28;20437;-75
2022/06/03 09:05:25;;;;;;;3.67;2.40;;;21.50;14.60;;;;;;5062366;28;20431;-76
2022/06/03 09:07:59;;;;;;;2.80;2.38;;;21.70;14.20;;;;;;5051383;28;20390;-75
2022/06/03 09:10:27;;;;;;;3.10;2.35;;;21.80;14.60;;;;;;5048274;28;20811;-75
2022/06/03 09:12:55;;;;;;;4.07;2.60;;;21.70;13.70;;;;;;5055635;28;20405;-73
2022/06/03 09:15:25;;;;;;;2.43;2.23;;;21.80;14.20;;;;;;5055000;28;20421;-74
2022/06/03 09:18:11;;;;;;;5.47;2.50;;;21.80;13.50;;;;;;5056084;28;20401;-75
2022/06/03 09:20:42;;;;;;;3.95;2.17;;;21.70;14.10;;;;;;5051054;28;20397;-76
2022/06/03 09:23:11;;;;;;;2.30;2.10;;;21.60;12.40;;;;;;5046330;28;20404;-75
2022/06/03 09:25:47;;;;;;;2.80;2.10;;;21.70;13.00;;;;;;5052072;28;20612;-75
2022/06/03 09:28:17;;;;;;;3.22;2.00;;;21.90;12.00;;;;;;5063295;28;20853;-74
2022/06/03 09:30:46;;;;;;;2.40;2.20;;;22.00;12.50;;;;;;5049906;28;20406;-75
2022/06/03 09:33:15;;;;;;;3.40;2.20;;;22.20;11.30;;;;;;5054486;28;20448;-75
2022/06/03 09:35:46;;;;;;;2.60;2.40;;;22.40;12.60;;;;;;5061988;28;20407;-75
2022/06/03 09:38:13;;;;;;;3.00;2.33;;;22.80;11.50;;;;;;5064993;28;20477;-76
2022/06/03 09:40:44;;;;;;;5.07;1.85;;;22.90;11.70;;;;;;5062804;28;20440;-75
2022/06/03 09:43:22;;;;;;;5.28;2.22;;;23.10;9.40;;;;;;5050655;28;20401;-76
2022/06/03 09:45:51;;;;;;;2.27;2.07;;;23.30;9.70;;;;;;5056822;28;20407;-76
2022/06/03 09:48:20;;;;;;;4.13;2.10;;;23.50;9.90;;;;;;5049676;28;20401;-75
2022/06/03 09:50:47;;;;;;;2.10;1.90;;;23.60;10.50;;;;;;5054128;28;20514;-76
2022/06/03 09:53:18;;;;;;;2.30;2.10;;;23.60;8.80;;;;;;5050517;28;20409;-75
2022/06/03 09:55:50;;;;;;;4.72;2.00;;;23.60;10.00;;;;;;5053014;28;21110;-75
2022/06/03 09:58:19;;;;;;;4.47;2.10;;;23.80;10.10;;;;;;5051607;28;20488;-74
2022/06/03 10:00:51;;;;;;;4.82;2.10;;;24.00;10.20;;;;;;5050859;28;20512;-75
2022/06/03 10:03:18;;;;;;;2.70;1.80;;;24.00;8.70;;;;;;5048886;28;20437;-76
2022/06/03 10:05:50;;;;;;;1.85;1.70;;;23.80;7.20;;;;;;5056469;28;20421;-75
2022/06/03 10:08:20;;;;;;;2.70;1.92;;;23.60;8.20;;;;;;5052398;28;20400;-75
2022/06/03 10:13:33;;;;;;;3.47;2.00;;;23.70;8.00;;;;;;5052036;28;20439;-75
2022/06/03 10:16:00;;;;;;;3.65;2.05;;;24.20;9.00;;;;;;5053984;28;20405;-77
2022/06/03 10:18:46;;;;;;;2.55;1.70;;;24.60;7.90;;;;;;5051335;28;20409;-76
2022/06/03 10:21:12;;;;;;;2.88;1.80;;;24.30;6.70;;;;;;5048846;28;20393;-75
2022/06/03 10:23:42;;;;;;;3.67;2.00;;;24.50;7.40;;;;;;5049059;28;20906;-75
2022/06/03 10:26:10;;;;;;;3.45;2.13;;;24.70;7.90;;;;;;5051181;28;20492;-77
2022/06/03 10:28:39;;;;;;;5.85;2.42;;;24.90;7.90;;;;;;5062019;28;20409;-76
2022/06/03 10:31:14;;;;;;;3.00;2.00;;;25.30;7.80;;;;;;5054783;28;20765;-76
2022/06/03 10:33:50;;;;;;;2.60;1.90;;;25.60;5.70;;;;;;5057400;28;20500;-75
2022/06/03 10:36:16;;;;;;;5.90;2.60;;;25.50;6.40;;;;;;5061234;28;20462;-76
2022/06/03 10:38:57;;;;;;;2.95;1.98;;;25.50;6.20;;;;;;5051578;28;20409;-76
2022/06/03 10:41:43;;;;;;;3.75;1.90;;;25.20;6.80;;;;;;5054507;28;20498;-76
2022/06/03 10:44:14;;;;;;;4.03;2.15;;;25.20;6.60;;;;;;5063150;28;20429;-75
2022/06/03 10:46:55;;;;;;;5.30;2.60;;;25.20;6.90;;;;;;5053447;28;20563;-77
2022/06/03 10:49:22;;;;;;;3.50;2.05;;;25.50;7.40;;;;;;5052828;28;20396;-76
2022/06/03 11:02:50;;;;;;;2.85;2.30;;;25.80;5.60;;;;;;5052022;28;20400;-76
2022/06/03 11:05:28;;;;;;;3.10;2.03;;;25.90;6.30;;;;;;5053235;28;20405;-75
2022/06/03 11:08:07;;;;;;;3.63;2.08;;;25.60;5.60;;;;;;5053633;28;20762;-77
2022/06/03 11:10:36;;;;;;;2.33;2.13;;;25.30;6.60;;;;;;5056012;28;20409;-75
2022/06/03 11:13:04;;;;;;;2.78;2.20;;;25.40;6.00;;;;;;5051493;28;20409;-74
2022/06/03 11:15:49;;;;;;;2.60;2.30;;;25.50;5.90;;;;;;5068308;28;20459;-76
2022/06/03 11:18:24;;;;;;;5.30;2.60;;;25.50;6.20;;;;;;5051977;28;20397;-78
2022/06/03 11:20:52;;;;;;;4.07;2.35;;;25.50;6.80;;;;;;5060050;28;20403;-76
2022/06/03 11:23:18;;;;;;;3.80;2.28;;;25.50;6.40;;;;;;5055675;28;20420;-73
2022/06/03 11:25:47;;;;;;;6.13;2.33;;;25.30;6.40;;;;;;5069545;28;20396;-75
2022/06/03 11:28:22;;;;;;;2.60;2.40;;;25.20;7.30;;;;;;5065063;28;20405;-77
2022/06/03 11:30:56;;;;;;;5.00;2.40;;;25.30;6.60;;;;;;5066338;28;20391;-75
2022/06/03 11:33:33;;;;;;;3.50;2.40;;;24.80;7.40;;;;;;5073697;28;20420;-74
2022/06/03 11:36:29;;;;;;;3.60;2.30;;;25.00;9.10;;;;;;5069298;28;20872;-75
2022/06/03 11:39:30;;;;;;;2.72;2.38;;;25.60;7.90;;;;;;5085428;22;21607;-83
2022/06/03 11:42:04;;;;;;;2.87;2.30;;;26.00;6.50;;;;;;5075184;28;20434;-77
2022/06/03 11:44:54;;;;;;;4.38;2.50;;;26.30;7.00;;;;;;5074067;28;20411;-79
2022/06/03 11:47:27;;;;;;;6.90;2.40;;;26.60;6.90;;;;;;5056276;28;20430;-80
2022/06/03 11:49:54;;;;;;;4.00;2.20;;;26.30;4.90;;;;;;5066782;28;20509;-82
2022/06/03 11:52:22;;;;;;;7.07;4.27;;;25.30;6.40;;;;;;5057752;28;20477;-76
2022/06/03 11:54:49;;;;;;;14.20;7.72;;;25.00;7.50;;;;;;5029863;28;20452;-82
2022/06/03 11:57:15;;;;;;;6.57;4.95;;;24.90;7.20;;;;;;5054769;28;20477;-76
2022/06/03 11:59:45;;;;;;;6.32;3.30;;;25.10;7.70;;;;;;5056991;28;20904;-80
2022/06/03 12:02:18;;;;;;;6.22;2.60;;;25.10;7.20;;;;;;5053359;28;20402;-78
2022/06/03 12:04:49;;;;;;;2.53;2.20;;;25.30;7.30;;;;;;5053359;28;20751;-79
2022/06/03 12:07:39;;;;;;;4.35;2.80;;;25.30;7.50;;;;;;5043744;28;20394;-78
2022/06/03 12:10:23;;;;;;;7.07;2.85;;;25.40;6.90;;;;;;5042614;28;20383;-78
2022/06/03 12:13:15;;;;;;;7.22;3.30;;;25.30;7.00;;;;;;5057846;28;20502;-81
2022/06/03 12:15:52;;;;;;;3.70;2.30;;;25.20;7.30;;;;;;5060284;28;20770;-80
2022/06/03 12:18:39;;;;;;;2.72;2.10;;;25.30;6.90;;;;;;5058019;28;20453;-82
2022/06/03 12:21:07;;;;;;;4.40;2.50;;;25.70;6.90;;;;;;5028144;28;20464;-82
2022/06/03 12:23:33;;;;;;;6.70;2.63;;;26.00;6.50;;;;;;5035796;28;20390;-79
2022/06/03 12:26:33;;;;;;;3.15;2.55;;;26.00;6.40;;;;;;5070907;28;20393;-80
2022/06/03 12:29:10;;;;;;;4.15;2.40;;;25.90;5.90;;;;;;5043304;28;20483;-80
2022/06/03 12:31:42;;;;;;;3.75;2.80;;;25.70;6.50;;;;;;5058505;28;20377;-82
2022/06/03 12:34:14;;;;;;;4.78;2.17;;;25.50;7.40;;;;;;5075328;28;20452;-78
2022/06/03 12:36:40;;;;;;;3.65;2.60;;;25.60;6.80;;;;;;5074012;28;20457;-79
2022/06/03 12:39:21;;;;;;;3.70;2.00;;;25.50;7.00;;;;;;5065551;28;20405;-79
2022/06/03 12:41:47;;;;;;;5.00;2.30;;;25.50;7.30;;;;;;5071357;28;20427;-76
2022/06/03 12:44:40;;;;;;;4.10;2.80;;;25.80;8.20;;;;;;5070112;28;20401;-79
2022/06/03 12:47:17;;;;;;;6.50;2.53;;;26.20;7.40;;;;;;5064013;28;20370;-80
2022/06/03 12:49:43;;;;;;;3.63;2.78;;;26.60;6.50;;;;;;5050796;28;20501;-77
2022/06/03 12:52:20;;;;;;;7.50;2.67;;;26.60;6.90;;;;;;5026220;28;20391;-79
2022/06/03 12:55:00;;;;;;;2.72;2.50;;;26.70;6.50;;;;;;5033652;28;20418;-80
2022/06/03 12:57:30;;;;;;;5.43;2.80;;;26.70;6.40;;;;;;5061938;28;20413;-81
2022/06/03 13:00:02;;;;;;;3.50;2.38;;;26.90;6.20;;;;;;5049197;28;20407;-80
2022/06/03 13:02:31;;;;;;;3.30;2.40;;;27.00;5.80;;;;;;5053221;28;20413;-79
2022/06/03 13:04:58;;;;;;;2.95;2.72;;;27.00;5.90;;;;;;5034933;28;20474;-78
2022/06/03 13:07:27;;;;;;;6.87;2.50;;;27.20;6.90;;;;;;5064533;28;20409;-80
2022/06/03 13:10:08;;;;;;;2.95;2.55;;;27.20;6.70;;;;;;5051934;28;20414;-79
2022/06/03 13:12:36;;;;;;;5.13;2.67;;;27.20;6.10;;;;;;5046219;28;20421;-80
2022/06/03 13:15:20;;;;;;;3.88;2.63;;;27.20;6.00;;;;;;5044104;28;20407;-79
2022/06/03 13:18:09;;;;;;;2.65;2.42;;;28.00;6.20;;;;;;5058765;28;20393;-78
2022/06/03 13:21:10;;;;;;;3.78;2.60;;;29.00;4.80;;;;;;5052627;28;20405;-78
2022/06/03 13:23:45;;;;;;;3.30;2.30;;;28.60;3.00;;;;;;5045194;28;20391;-78
2022/06/03 13:26:22;;;;;;;5.30;2.45;;;28.20;4.30;;;;;;5030547;28;20448;-80
2022/06/03 13:29:00;;;;;;;2.92;2.50;;;28.90;3.70;;;;;;5049604;28;20412;-78
2022/06/03 13:31:41;;;;;;;3.97;2.60;;;29.40;3.00;;;;;;5058218;28;20443;-79
2022/06/03 13:36:35;;;;;;;4.50;2.40;;;30.80;2.20;;;;;;5052648;28;20435;-79
2022/06/03 13:39:05;;;;;;;3.88;2.08;;;31.30;1.70;;;;;;5031601;28;20484;-79
2022/06/03 13:44:54;;;;;;;3.70;2.53;;;32.30;1.00;;;;;;5040004;28;20390;-79
2022/06/03 13:47:20;;;;;;;3.13;2.20;;;32.20;1.00;;;;;;5056019;28;20501;-78
2022/06/03 13:49:57;;;;;;;3.60;2.20;;;31.90;1.00;;;;;;5046223;28;20423;-79
2022/06/03 13:52:29;;;;;;;5.30;2.30;;;31.70;1.00;;;;;;5055868;28;20409;-80
2022/06/03 13:55:06;;;;;;;3.97;2.10;;;31.60;1.00;;;;;;5060636;28;20399;-80
2022/06/03 13:57:38;;;;;;;4.07;2.20;;;31.40;1.00;;;;;;5043090;28;20729;-79
2022/06/03 14:00:15;;;;;;;6.03;2.30;;;31.60;1.00;;;;;;5040137;28;20409;-76
2022/06/03 14:02:43;;;;;;;2.20;2.10;;;31.80;1.00;;;;;;5046008;28;20381;-79
2022/06/03 14:05:26;;;;;;;5.95;2.50;;;31.50;1.00;;;;;;5073889;28;20451;-79
2022/06/03 14:08:01;;;;;;;2.95;2.42;;;31.10;1.00;;;;;;5057997;28;20397;-81
2022/06/03 14:10:40;;;;;;;3.60;2.40;;;30.40;1.00;;;;;;5064756;28;20504;-79
2022/06/03 14:13:14;;;;;;;2.30;2.10;;;30.20;1.70;;;;;;5053448;28;20401;-81
2022/06/03 14:16:12;;;;;;;5.32;2.70;;;30.10;1.90;;;;;;5063825;28;20417;-80
2022/06/03 14:19:17;;;;;;;4.43;2.50;;;29.80;2.00;;;;;;5042107;28;20422;-78
2022/06/03 14:21:51;;;;;;;4.25;2.60;;;29.80;1.90;;;;;;5043515;28;20389;-78
2022/06/03 14:24:36;;;;;;;2.30;2.10;;;29.50;2.90;;;;;;5039358;28;20417;-78
2022/06/03 14:27:28;;;;;;;4.33;2.40;;;29.20;3.50;;;;;;5048645;28;20495;-78
2022/06/03 14:30:01;;;;;;;3.15;2.58;;;29.00;4.10;;;;;;5034841;28;20979;-78
2022/06/03 14:32:32;;;;;;;3.93;2.60;;;28.80;3.70;;;;;;5038993;28;20445;-77
2022/06/03 14:35:20;;;;;;;3.75;2.67;;;28.70;4.00;;;;;;5037244;28;20403;-78
2022/06/03 14:38:00;;;;;;;2.38;2.17;;;28.80;3.70;;;;;;5053757;28;20415;-78